createdAt,value
2018-11-04T00:00:58.243Z,10.33
2018-11-04T00:03:26.159Z,10.80
2018-11-04T00:05:53.906Z,10.23
2018-11-04T00:08:21.719Z,10.23
2018-11-04T00:10:49.442Z,10.43
2018-11-04T00:13:17.482Z,10.83
2018-11-04T00:15:45.235Z,10.17
2018-11-04T00:18:12.931Z,10.53
2018-11-04T00:20:40.662Z,10.47
2018-11-04T00:23:08.370Z,9.73
2018-11-04T00:25:36.115Z,10.40
2018-11-04T00:28:03.858Z,10.63
2018-11-04T00:30:31.582Z,10.87
2018-11-04T00:32:59.371Z,11.60
2018-11-04T00:35:27.162Z,10.83
2018-11-04T00:37:54.879Z,9.87
2018-11-04T00:40:22.615Z,10.20
2018-11-04T00:42:50.363Z,9.90
2018-11-04T00:45:18.117Z,10.87
2018-11-04T00:47:45.855Z,10.40
2018-11-04T00:50:14.610Z,10.27
2018-11-04T00:52:42.640Z,10.70
2018-11-04T00:55:11.007Z,10.43
2018-11-04T00:57:38.767Z,10.87
2018-11-04T01:00:09.311Z,10.87
2018-11-04T01:02:37.075Z,10.40
2018-11-04T01:05:06.775Z,10.90
2018-11-04T01:07:34.550Z,11.47
2018-11-04T01:10:02.307Z,10.37
2018-11-04T01:12:30.039Z,10.90
2018-11-04T01:14:57.770Z,11.37
2018-11-04T01:17:25.534Z,11.00
2018-11-04T01:19:53.271Z,10.37
2018-11-04T01:22:21.031Z,11.13
2018-11-04T01:24:48.761Z,10.87
2018-11-04T01:27:16.491Z,11.23
2018-11-04T01:29:45.211Z,11.00
2018-11-04T01:32:12.942Z,11.47
2018-11-04T01:34:40.732Z,12.00
2018-11-04T01:37:08.466Z,11.43
2018-11-04T01:39:36.210Z,12.13
2018-11-04T01:42:04.223Z,13.40
2018-11-04T01:44:31.989Z,11.63
2018-11-04T01:46:59.761Z,14.23
2018-11-04T01:49:27.479Z,12.40
2018-11-04T01:51:58.706Z,12.10
2018-11-04T01:54:26.434Z,12.43
2018-11-04T01:56:54.155Z,11.73
2018-11-04T01:59:21.866Z,12.93
2018-11-04T02:01:49.586Z,13.10
2018-11-04T02:04:17.308Z,13.00
2018-11-04T02:06:45.017Z,12.77
2018-11-04T02:09:12.751Z,12.40
2018-11-04T02:11:40.488Z,11.97
2018-11-04T02:14:08.220Z,12.57
2018-11-04T02:16:36.181Z,12.80
2018-11-04T02:19:03.932Z,12.97
2018-11-04T02:21:31.675Z,12.80
2018-11-04T02:23:59.412Z,13.57
2018-11-04T02:26:27.159Z,13.37
2018-11-04T02:28:54.870Z,13.10
2018-11-04T02:31:22.595Z,13.33
2018-11-04T02:33:50.590Z,13.27
2018-11-04T02:36:18.307Z,13.70
2018-11-04T02:38:46.033Z,12.90
2018-11-04T02:41:13.742Z,12.90
2018-11-04T02:43:41.473Z,13.13
2018-11-04T02:46:09.214Z,12.97
2018-11-04T02:48:37.446Z,13.67
2018-11-04T02:51:05.243Z,13.73
2018-11-04T02:53:32.979Z,15.03
2018-11-04T02:56:00.704Z,13.20
2018-11-04T02:58:28.437Z,13.57
2018-11-04T03:00:56.163Z,14.13
2018-11-04T03:03:23.918Z,13.97
2018-11-04T03:05:51.630Z,13.67
2018-11-04T03:08:19.355Z,14.20
2018-11-04T03:10:47.082Z,13.67
2018-11-04T03:13:14.815Z,13.43
2018-11-04T03:15:42.562Z,14.07
2018-11-04T03:18:10.303Z,13.30
2018-11-04T03:20:38.038Z,12.97
2018-11-04T03:23:05.988Z,13.17
2018-11-04T03:25:33.741Z,13.60
2018-11-04T03:28:01.459Z,12.93
2018-11-04T03:30:29.194Z,13.30
2018-11-04T03:32:56.930Z,14.23
2018-11-04T03:35:24.654Z,13.63
2018-11-04T03:37:52.379Z,15.07
2018-11-04T03:40:20.165Z,16.30
2018-11-04T03:42:47.930Z,14.67
2018-11-04T03:45:15.663Z,15.03
2018-11-04T03:47:43.396Z,14.67
2018-11-04T03:50:12.126Z,13.90
2018-11-04T03:52:39.890Z,15.97
2018-11-04T03:55:08.006Z,17.03
2018-11-04T03:57:35.827Z,17.60
2018-11-04T04:00:03.969Z,17.33
2018-11-04T04:02:31.714Z,17.57
2018-11-04T04:04:59.474Z,19.10
2018-11-04T04:07:27.258Z,18.53
2018-11-04T04:09:54.971Z,19.80
2018-11-04T04:12:22.738Z,21.87
2018-11-04T04:14:50.444Z,22.07
2018-11-04T04:17:18.199Z,20.67
2018-11-04T04:19:45.922Z,21.90
2018-11-04T04:22:13.654Z,22.53
2018-11-04T04:24:41.470Z,22.60
2018-11-04T04:27:09.203Z,22.70
2018-11-04T04:29:36.932Z,21.43
2018-11-04T04:32:04.914Z,23.47
2018-11-04T04:34:32.807Z,22.87
2018-11-04T04:37:00.538Z,22.70
2018-11-04T04:39:28.267Z,23.03
2018-11-04T04:41:56.038Z,21.60
2018-11-04T04:44:23.755Z,22.13
2018-11-04T04:46:51.460Z,22.80
2018-11-04T04:49:19.196Z,22.90
2018-11-04T04:51:46.963Z,22.07
2018-11-04T04:54:14.707Z,22.80
2018-11-04T04:56:42.434Z,19.47
2018-11-04T04:59:10.147Z,21.97
2018-11-04T05:01:37.858Z,22.17
2018-11-04T05:04:05.599Z,20.83
2018-11-04T05:06:33.375Z,20.90
2018-11-04T05:09:01.119Z,21.33
2018-11-04T05:11:28.853Z,20.07
2018-11-04T05:13:56.591Z,20.67
2018-11-04T05:16:24.306Z,20.00
2018-11-04T05:18:52.066Z,20.93
2018-11-04T05:21:19.803Z,20.47
2018-11-04T05:23:47.507Z,19.27
2018-11-04T05:26:15.246Z,20.57
2018-11-04T05:28:42.947Z,19.63
2018-11-04T05:31:10.678Z,18.87
2018-11-04T05:33:38.498Z,20.60
2018-11-04T05:36:06.223Z,20.60
2018-11-04T05:38:33.922Z,21.73
2018-11-04T05:41:01.650Z,22.30
2018-11-04T05:43:29.394Z,21.80
2018-11-04T05:45:57.159Z,22.17
2018-11-04T05:48:24.917Z,20.17
2018-11-04T05:50:52.630Z,20.80
2018-11-04T05:53:20.350Z,22.57
2018-11-04T05:55:48.077Z,21.50
2018-11-04T05:58:16.026Z,22.43
2018-11-04T06:00:43.949Z,21.90
2018-11-04T06:03:11.758Z,20.93
2018-11-04T06:05:39.474Z,17.43
2018-11-04T06:08:07.197Z,19.47
2018-11-04T06:10:34.919Z,18.73
2018-11-04T06:13:02.683Z,19.57
2018-11-04T06:15:30.394Z,27.00
2018-11-04T06:17:58.131Z,23.17
2018-11-04T06:20:25.864Z,19.67
2018-11-04T06:22:53.586Z,19.13
2018-11-04T06:25:21.349Z,19.60
2018-11-04T06:27:49.140Z,20.03
2018-11-04T06:30:16.866Z,20.53
2018-11-04T06:32:44.640Z,21.00
2018-11-04T06:35:12.360Z,19.13
2018-11-04T06:37:40.087Z,18.47
2018-11-04T06:40:08.574Z,19.07
2018-11-04T06:42:36.315Z,17.60
2018-11-04T06:45:04.702Z,17.03
2018-11-04T06:47:32.487Z,17.53
2018-11-04T06:50:00.234Z,17.10
2018-11-04T06:52:27.962Z,17.80
2018-11-04T06:54:55.685Z,17.60
2018-11-04T06:57:23.551Z,17.53
2018-11-04T06:59:51.789Z,17.40
2018-11-04T07:02:19.534Z,15.77
2018-11-04T07:04:47.250Z,16.23
2018-11-04T07:07:14.981Z,15.83
2018-11-04T07:09:42.708Z,15.50
2018-11-04T07:12:10.479Z,16.37
2018-11-04T07:14:38.207Z,17.17
2018-11-04T07:17:05.943Z,17.63
2018-11-04T07:19:33.659Z,15.67
2018-11-04T07:22:01.393Z,15.40
2018-11-04T07:24:29.144Z,15.67
2018-11-04T07:26:57.016Z,16.83
2018-11-04T07:29:25.392Z,15.20
2018-11-04T07:31:53.180Z,14.70
2018-11-04T07:34:20.870Z,14.67
2018-11-04T07:36:48.623Z,15.07
2018-11-04T07:39:16.350Z,15.50
2018-11-04T07:41:44.083Z,14.83
2018-11-04T07:44:11.845Z,14.87
2018-11-04T07:46:39.606Z,13.63
2018-11-04T07:49:07.362Z,13.93
2018-11-04T07:51:35.236Z,14.57
2018-11-04T07:54:02.931Z,14.73
2018-11-04T07:56:30.715Z,14.33
2018-11-04T07:58:58.439Z,12.83
2018-11-04T08:01:26.177Z,13.67
2018-11-04T08:03:53.933Z,12.23
2018-11-04T08:06:21.718Z,14.63
2018-11-04T08:08:49.450Z,13.40
2018-11-04T08:11:17.235Z,14.63
2018-11-04T08:13:45.013Z,14.67
2018-11-04T08:16:12.722Z,14.13
2018-11-04T08:18:40.458Z,15.30
2018-11-04T08:21:08.214Z,16.63
2018-11-04T08:23:35.950Z,13.20
2018-11-04T08:26:03.714Z,13.30
2018-11-04T08:28:31.447Z,14.43
2018-11-04T08:30:59.160Z,14.83
2018-11-04T08:33:26.902Z,15.13
2018-11-04T08:35:54.670Z,14.60
2018-11-04T08:38:22.393Z,14.43
2018-11-04T08:40:50.150Z,14.67
2018-11-04T08:43:18.725Z,13.00
2018-11-04T08:45:46.585Z,14.13
2018-11-04T08:48:14.254Z,14.90
2018-11-04T08:50:42.018Z,14.23
2018-11-04T08:53:09.761Z,14.40
2018-11-04T08:55:37.518Z,11.63
2018-11-04T08:58:05.283Z,11.63
2018-11-04T09:00:33.062Z,12.53
2018-11-04T09:03:00.792Z,12.77
2018-11-04T09:05:28.506Z,12.07
2018-11-04T09:07:56.242Z,11.57
2018-11-04T09:10:23.973Z,11.03
2018-11-04T09:12:51.709Z,11.90
2018-11-04T09:15:19.442Z,11.40
2018-11-04T09:17:47.178Z,10.63
2018-11-04T09:20:16.093Z,10.50
2018-11-04T09:22:44.139Z,11.17
2018-11-04T09:25:12.451Z,11.27
2018-11-04T09:27:40.191Z,10.57
2018-11-04T09:30:10.000Z,10.17
2018-11-04T09:32:37.792Z,8.87
2018-11-04T09:35:06.130Z,9.33
2018-11-04T09:37:33.797Z,8.37
2018-11-04T09:40:01.556Z,7.17
2018-11-04T09:42:29.314Z,7.80
2018-11-04T09:44:57.030Z,7.00
2018-11-04T09:47:24.762Z,8.90
2018-11-04T09:49:52.556Z,8.47
2018-11-04T09:52:20.270Z,8.20
2018-11-04T09:54:48.011Z,8.30
2018-11-04T09:57:17.098Z,8.00
2018-11-04T09:59:45.222Z,7.87
2018-11-04T10:02:12.966Z,7.87
2018-11-04T10:04:40.702Z,7.93
2018-11-04T10:07:08.523Z,7.73
2018-11-04T10:09:36.208Z,9.13
2018-11-04T10:12:04.258Z,9.50
2018-11-04T10:14:32.002Z,10.90
2018-11-04T10:16:59.722Z,11.10
2018-11-04T10:19:27.553Z,11.73
2018-11-04T10:21:55.222Z,10.57
2018-11-04T10:24:22.964Z,12.17
2018-11-04T10:26:51.030Z,11.60
2018-11-04T10:29:18.750Z,12.67
2018-11-04T10:31:46.497Z,12.23
2018-11-04T10:34:14.254Z,13.03
2018-11-04T10:36:42.040Z,12.20
2018-11-04T10:39:11.170Z,13.93
2018-11-04T10:41:38.911Z,13.47
2018-11-04T10:44:06.661Z,13.40
2018-11-04T10:46:34.432Z,13.90
2018-11-04T10:49:02.189Z,14.93
2018-11-04T10:51:29.970Z,14.57
2018-11-04T10:53:57.723Z,13.93
2018-11-04T10:56:25.463Z,13.50
2018-11-04T10:58:53.228Z,12.73
2018-11-04T11:01:21.030Z,14.97
2018-11-04T11:03:48.750Z,14.63
2018-11-04T11:06:16.636Z,15.37
2018-11-04T11:08:44.397Z,14.07
2018-11-04T11:11:12.146Z,15.07
2018-11-04T11:13:39.894Z,14.10
2018-11-04T11:16:07.646Z,12.67
2018-11-04T11:18:35.401Z,11.93
2018-11-04T11:21:03.256Z,11.87
2018-11-04T11:23:31.014Z,12.70
2018-11-04T11:25:58.754Z,14.17
2018-11-04T11:28:26.590Z,14.70
2018-11-04T11:30:54.321Z,16.17
2018-11-04T11:33:22.178Z,20.77
2018-11-04T11:35:49.935Z,21.27
2018-11-04T11:38:17.737Z,20.20
2018-11-04T11:40:45.498Z,21.73
2018-11-04T11:43:13.246Z,17.00
2018-11-04T11:45:40.983Z,10.63
2018-11-04T11:48:09.011Z,9.67
2018-11-04T11:50:36.806Z,7.60
2018-11-04T11:53:04.699Z,10.67
2018-11-04T11:55:32.424Z,8.43
2018-11-04T11:58:00.180Z,9.20
2018-11-04T12:00:27.923Z,8.83
2018-11-04T12:02:55.666Z,7.37
2018-11-04T12:05:23.391Z,5.67
2018-11-04T12:07:51.122Z,5.33
2018-11-04T12:10:18.885Z,5.30
2018-11-04T12:12:46.611Z,7.40
2018-11-04T12:15:14.658Z,7.07
2018-11-04T12:17:42.580Z,6.33
2018-11-04T12:20:11.415Z,7.43
2018-11-04T12:22:39.184Z,6.27
2018-11-04T12:25:08.258Z,6.50
2018-11-04T12:27:35.997Z,5.50
2018-11-04T12:30:04.339Z,5.57
2018-11-04T12:32:32.090Z,6.57
2018-11-04T12:34:59.893Z,6.20
2018-11-04T12:37:27.595Z,6.13
2018-11-04T12:39:55.331Z,7.60
2018-11-04T12:42:23.092Z,6.13
2018-11-04T12:44:51.374Z,6.77
2018-11-04T12:47:19.159Z,6.30
2018-11-04T12:49:46.878Z,6.00
2018-11-04T12:52:14.678Z,8.00
2018-11-04T12:54:42.366Z,6.53
2018-11-04T12:57:10.114Z,6.93
2018-11-04T12:59:37.993Z,5.63
2018-11-04T13:02:05.940Z,6.27
2018-11-04T13:04:33.642Z,6.47
2018-11-04T13:07:01.386Z,6.73
2018-11-04T13:09:29.230Z,6.40
2018-11-04T13:11:56.977Z,6.83
2018-11-04T13:14:24.714Z,7.57
2018-11-04T13:16:52.478Z,6.60
2018-11-04T13:19:20.248Z,6.40
2018-11-04T13:21:47.994Z,6.23
2018-11-04T13:24:15.718Z,5.63
2018-11-04T13:26:43.503Z,7.03
2018-11-04T13:29:11.242Z,5.63
2018-11-04T13:31:38.975Z,5.80
2018-11-04T13:34:06.714Z,6.50
2018-11-04T13:36:34.461Z,6.27
2018-11-04T13:39:02.405Z,5.97
2018-11-04T13:41:30.122Z,5.27
2018-11-04T13:43:57.860Z,5.90
2018-11-04T13:46:25.622Z,7.97
2018-11-04T13:48:53.402Z,8.30
2018-11-04T13:51:21.128Z,8.30
2018-11-04T13:53:48.856Z,8.20
2018-11-04T13:56:18.506Z,7.83
2018-11-04T13:58:46.239Z,8.20
2018-11-04T14:01:13.975Z,8.13
2018-11-04T14:03:42.590Z,12.57
2018-11-04T14:06:10.299Z,10.77
2018-11-04T14:08:38.038Z,9.10
2018-11-04T14:11:05.877Z,8.07
2018-11-04T14:13:33.698Z,8.43
2018-11-04T14:16:01.364Z,8.13
2018-11-04T14:18:29.081Z,7.20
2018-11-04T14:20:56.815Z,6.83
2018-11-04T14:23:24.600Z,7.93
2018-11-04T14:25:52.319Z,7.30
2018-11-04T14:28:20.066Z,8.03
2018-11-04T14:30:47.807Z,7.60
2018-11-04T14:33:15.683Z,8.00
2018-11-04T14:35:43.443Z,6.07
2018-11-04T14:38:11.247Z,5.73
2018-11-04T14:40:38.980Z,6.40
2018-11-04T14:43:06.714Z,7.47
2018-11-04T14:45:34.557Z,8.03
2018-11-04T14:48:02.272Z,8.53
2018-11-04T14:50:30.031Z,9.20
2018-11-04T14:52:57.876Z,9.30
2018-11-04T14:55:25.550Z,9.67
2018-11-04T14:57:53.298Z,12.17
2018-11-04T15:00:21.046Z,12.03
2018-11-04T15:02:48.778Z,12.03
2018-11-04T15:05:16.548Z,12.50
2018-11-04T15:07:44.294Z,12.47
2018-11-04T15:10:13.010Z,12.33
2018-11-04T15:12:40.773Z,12.30
2018-11-04T15:15:10.847Z,10.27
2018-11-04T15:17:38.621Z,11.90
2018-11-04T15:20:07.250Z,12.30
2018-11-04T15:22:35.003Z,12.67
2018-11-04T15:25:02.778Z,11.13
2018-11-04T15:27:30.520Z,11.43
2018-11-04T15:29:58.262Z,10.03
2018-11-04T15:32:25.998Z,10.07
2018-11-04T15:34:53.844Z,9.57
2018-11-04T15:37:21.519Z,9.63
2018-11-04T15:39:49.291Z,10.37
2018-11-04T15:42:17.019Z,12.10
2018-11-04T15:44:44.754Z,11.03
2018-11-04T15:47:12.497Z,11.80
2018-11-04T15:49:40.211Z,16.17
2018-11-04T15:52:07.937Z,14.80
2018-11-04T15:54:35.659Z,13.50
2018-11-04T15:57:09.042Z,15.97
2018-11-04T15:59:36.726Z,20.10
2018-11-04T16:02:04.837Z,23.20
2018-11-04T16:04:44.540Z,24.07
2018-11-04T16:07:00.435Z,26.33
2018-11-04T16:09:28.282Z,30.00
2018-11-04T16:11:56.122Z,28.43
2018-11-04T16:14:23.976Z,29.27
2018-11-04T16:16:51.851Z,30.27
2018-11-04T16:19:19.575Z,31.10
2018-11-04T16:21:47.310Z,32.50
2018-11-04T16:24:15.227Z,31.73
2018-11-04T16:26:43.044Z,34.33
2018-11-04T16:29:10.794Z,34.10
2018-11-04T16:31:38.535Z,34.17
2018-11-04T16:34:06.334Z,33.60
2018-11-04T16:36:34.086Z,33.30
2018-11-04T16:39:02.058Z,29.80
2018-11-04T16:41:29.794Z,29.83
2018-11-04T16:43:57.628Z,28.63
2018-11-04T16:46:25.306Z,28.10
2018-11-04T16:48:53.064Z,27.20
2018-11-04T16:51:20.791Z,27.90
2018-11-04T16:53:48.542Z,26.10
2018-11-04T16:56:16.402Z,24.93
2018-11-04T16:58:44.051Z,23.53
2018-11-04T17:01:11.784Z,23.33
2018-11-04T17:03:40.467Z,23.93
2018-11-04T17:06:08.199Z,22.97
2018-11-04T17:08:36.042Z,25.33
2018-11-04T17:11:03.858Z,26.53
2018-11-04T17:13:31.666Z,27.30
2018-11-04T17:15:59.430Z,27.07
2018-11-04T17:18:27.175Z,24.70
2018-11-04T17:20:55.015Z,23.77
2018-11-04T17:23:22.780Z,21.93
2018-11-04T17:25:50.517Z,21.27
2018-11-04T17:28:18.282Z,20.83
2018-11-04T17:30:46.067Z,20.70
2018-11-04T17:33:13.858Z,22.17
2018-11-04T17:35:41.643Z,23.90
2018-11-04T17:38:09.360Z,23.77
2018-11-04T17:40:37.114Z,23.97
2018-11-04T17:43:05.388Z,24.40
2018-11-04T17:45:33.396Z,22.93
2018-11-04T17:48:01.212Z,24.23
2018-11-04T17:50:29.044Z,28.37
2018-11-04T17:52:56.830Z,26.70
2018-11-04T17:55:24.761Z,26.23
2018-11-04T17:57:52.699Z,24.83
2018-11-04T18:00:20.483Z,23.70
2018-11-04T18:02:48.224Z,21.67
2018-11-04T18:05:15.992Z,23.53
2018-11-04T18:07:44.249Z,22.97
2018-11-04T18:10:12.839Z,24.87
2018-11-04T18:12:40.706Z,24.53
2018-11-04T18:15:09.027Z,24.43
2018-11-04T18:17:36.783Z,21.83
2018-11-04T18:20:05.202Z,21.33
2018-11-04T18:22:33.011Z,20.03
2018-11-04T18:25:00.755Z,20.40
2018-11-04T18:27:28.512Z,19.90
2018-11-04T18:29:56.291Z,18.83
2018-11-04T18:32:24.097Z,19.77
2018-11-04T18:34:51.788Z,19.77
2018-11-04T18:37:19.527Z,19.40
2018-11-04T18:39:47.275Z,18.53
2018-11-04T18:42:15.048Z,19.13
2018-11-04T18:44:42.962Z,18.67
2018-11-04T18:47:10.562Z,18.57
2018-11-04T18:49:38.305Z,19.03
2018-11-04T18:52:06.591Z,18.50
2018-11-04T18:54:34.389Z,17.07
2018-11-04T18:57:02.138Z,16.23
2018-11-04T18:59:29.862Z,15.60
2018-11-04T19:01:57.626Z,17.10
2018-11-04T19:04:25.379Z,16.70
2018-11-04T19:06:53.146Z,17.47
2018-11-04T19:09:20.891Z,16.47
2018-11-04T19:11:48.785Z,18.13
2018-11-04T19:14:16.459Z,17.87
2018-11-04T19:16:44.210Z,16.50
2018-11-04T19:19:12.304Z,15.97
2018-11-04T19:21:40.096Z,15.83
2018-11-04T19:24:07.828Z,16.50
2018-11-04T19:26:35.618Z,15.27
2018-11-04T19:29:03.355Z,15.53
2018-11-04T19:31:31.109Z,15.23
2018-11-04T19:33:59.110Z,15.77
2018-11-04T19:36:26.876Z,15.63
2018-11-04T19:38:54.615Z,15.87
2018-11-04T19:41:22.347Z,15.90
2018-11-04T19:43:50.080Z,17.37
2018-11-04T19:46:17.825Z,16.07
2018-11-04T19:48:45.671Z,14.63
2018-11-04T19:51:13.593Z,15.87
2018-11-04T19:53:41.166Z,15.17
2018-11-04T19:56:09.114Z,16.13
2018-11-04T19:58:36.912Z,14.97
2018-11-04T20:01:05.282Z,15.37
2018-11-04T20:03:33.023Z,13.93
2018-11-04T20:06:00.772Z,14.13
2018-11-04T20:08:28.521Z,13.57
2018-11-04T20:10:56.255Z,13.30
2018-11-04T20:13:30.548Z,13.27
2018-11-04T20:15:58.247Z,13.83
2018-11-04T20:18:31.418Z,12.73
2018-11-04T20:21:00.348Z,12.37
2018-11-04T20:23:28.086Z,12.17
2018-11-04T20:25:59.348Z,12.13
2018-11-04T20:28:27.167Z,10.70
2018-11-04T20:30:54.964Z,11.83
2018-11-04T20:33:22.685Z,11.90
2018-11-04T20:35:50.437Z,10.27
2018-11-04T20:38:18.298Z,9.50
2018-11-04T20:40:51.573Z,9.60
2018-11-04T20:43:19.318Z,10.53
2018-11-04T20:45:47.039Z,10.33
2018-11-04T20:48:20.246Z,10.63
2018-11-04T20:50:53.578Z,9.27
2018-11-04T20:53:21.401Z,10.37
2018-11-04T20:55:54.582Z,9.07
2018-11-04T20:58:22.562Z,10.37
2018-11-04T21:00:50.166Z,9.93
2018-11-04T21:03:17.951Z,9.03
2018-11-04T21:05:45.674Z,9.37
2018-11-04T21:08:13.403Z,8.53
2018-11-04T21:10:41.127Z,8.83
2018-11-04T21:13:08.863Z,8.23
2018-11-04T21:15:36.572Z,9.03
2018-11-04T21:18:04.448Z,8.63
2018-11-04T21:20:32.190Z,9.03
2018-11-04T21:22:59.907Z,8.60
2018-11-04T21:25:27.795Z,8.90
2018-11-04T21:27:55.485Z,9.17
2018-11-04T21:30:23.160Z,8.90
2018-11-04T21:32:50.930Z,10.00
2018-11-04T21:35:18.677Z,8.27
2018-11-04T21:37:46.666Z,8.53
2018-11-04T21:40:14.277Z,9.07
2018-11-04T21:42:42.144Z,8.57
2018-11-04T21:45:11.451Z,8.23
2018-11-04T21:47:39.322Z,8.47
2018-11-04T21:50:07.843Z,8.80
2018-11-04T21:52:35.586Z,9.13
2018-11-04T21:55:03.428Z,8.27
2018-11-04T21:57:31.160Z,8.13
2018-11-04T21:59:58.924Z,8.00
2018-11-04T22:02:26.693Z,8.20
2018-11-04T22:04:54.495Z,7.57
2018-11-04T22:07:22.233Z,7.53
2018-11-04T22:09:49.963Z,7.80
2018-11-04T22:12:17.747Z,8.00
2018-11-04T22:14:45.476Z,7.20
2018-11-04T22:17:13.219Z,7.30
2018-11-04T22:19:40.952Z,6.60
2018-11-04T22:22:08.727Z,7.23
2018-11-04T22:24:36.434Z,7.77
2018-11-04T22:27:04.209Z,7.43
2018-11-04T22:29:31.955Z,7.17
2018-11-04T22:31:59.687Z,7.13
2018-11-04T22:34:27.414Z,7.20
2018-11-04T22:36:55.147Z,6.60
2018-11-04T22:39:22.883Z,7.03
2018-11-04T22:41:50.621Z,6.67
2018-11-04T22:44:18.347Z,6.93
2018-11-04T22:46:46.067Z,7.13
2018-11-04T22:49:13.799Z,7.03
2018-11-04T22:51:41.522Z,6.53
2018-11-04T22:54:09.254Z,7.23
2018-11-04T22:56:37.033Z,6.67
2018-11-04T22:59:05.379Z,7.17
2018-11-04T23:01:33.137Z,7.00
2018-11-04T23:04:00.926Z,6.47
2018-11-04T23:06:28.648Z,7.00
2018-11-04T23:08:56.374Z,6.77
2018-11-04T23:11:24.126Z,6.50
2018-11-04T23:13:51.863Z,6.03
2018-11-04T23:16:19.606Z,5.90
2018-11-04T23:18:47.493Z,6.23
2018-11-04T23:21:15.082Z,6.27
2018-11-04T23:23:42.871Z,6.13
2018-11-04T23:26:10.618Z,6.70
2018-11-04T23:28:38.355Z,6.00
2018-11-04T23:31:06.122Z,6.10
2018-11-04T23:33:33.849Z,5.83
2018-11-04T23:36:01.586Z,6.00
2018-11-04T23:38:29.327Z,5.73
2018-11-04T23:40:57.049Z,5.90
2018-11-04T23:43:24.772Z,6.17
2018-11-04T23:45:52.521Z,6.23
2018-11-04T23:48:20.254Z,6.57
2018-11-04T23:50:47.984Z,5.60
2018-11-04T23:53:15.717Z,6.30
2018-11-04T23:55:43.463Z,6.27
2018-11-04T23:58:11.206Z,5.63
